Huvudsida
METAR-TAF:

METAR-TAF

Flygplatser :

Siem Reap International Airport

Siem Reap, Kambodja

latitud: 13-22N, longitud: 103-51E, höjd: 15 m

Aktuellt väderrapport

Denna rapport gjordes för 26 minuter sedan, klockan 14:30 UTC
Vind 3 kt från nord
Temperatur 26°C
Fuktighet 100%
Tryck 1007 hPa
Sikt: 9000 m
Spridda moln på en höjd av 1500 ft
Få moln på en höjd av 1700 ft, Cumulonimbus.
Spridda moln på en höjd av 4000 ft

METAR: VDSR 201430Z 36003KT 9000 SCT015 FEW017CB SCT040 26/26 Q1007 CB:NE

Tid: 21:56 (14:56 UTC)

Väderprognos

Denna rapport gjordes för 3 timmar och 56 minuter sedan, klockan 11:00 UTC
Prognos gäller från 20 kl. 12 UTC till 21 kl. 06 UTC
Vind 7 kt från väst/sydväst
Sikt 10 km eller mer
Spridda moln på en höjd av 1700 ft
Spridda moln på en höjd av 4000 ft

TAF: VDSR 201100Z 2012/2106 25007KT 9999 SCT017 SCT040

Aktuella väderrapporter och prognoser från 4000 flygplatser (METAR- och TAF-rapporter).

De tillgängliga stationerna syns som gula och röda prickar på kartan.

För musen över prickarna för att se namnen på stationerna.

Klicka sedan för att få väderrapporter och prognoser.

För att ändra kartan: Klicka på de gröna knapparna med ett svart kors på för att zooma in; den gröna knappen med ett streck på för att zooma ut; eller på de gröna pilarna för angränsande kartor.


METAR-TAF: